Main page
METAR-TAF:

METAR-TAF

Airports :

Bornholm Airport

Rønne, Denmark

latitude: 55-04N, longitude: 014-45E, elevation: 16 m

Current weather observation

The report was made 36 minutes ago, at 16:50 UTC
Wind 8 kt from the East/Southeast
Temperature 20°C
Humidity 68%
Pressure 1013 hPa
Visibility 10 km or more

METAR: EKRN 231650Z AUTO 12008KT 9999 BKN100/// 20/14 Q1013

Time: 19:26 (17:26 UTC)

Forecast

The report was made 3 hours and 18 minutes ago, at 14:08 UTC
Forecast valid from 23 at 15 UTC to 23 at 24 UTC
Wind 6 kt from the South/Southeast
Visibility 10 km or more
Scattered clouds at a height of 2000 ft
Temporary
from 23 at 19 UTC to 23 at 24 UTC
Visibility: 4000 m
Scattered clouds at a height of 2000 ft, Cumulonimbus.
rain showers,

TAF: EKRN 231408Z 2315/2324 16006KT 9999 SCT020 TEMPO 2319/2324 4000 SHRA SCT020CB

Weather observations and forecasts of more than 4000 airports (METAR and TAF reports).

The available stations are represented by yellow and red dots on the map.

Hover mouse over dot to see the name of the station.

Then click to see weather observations and forecasts.

To change the map : click on the green buttons with a black cross to zoom in, on the green button with a dash to zoom out, or on the green arrows for adjacent maps.


METAR-TAF: